sensor_id;sensor_type;location;lat;lon;timestamp;pressure;altitude;pressure_sealevel;temperature;humidity
15272;BME280;7737;51.578;7.268;2023-04-20T00:00:14;101422.97;;;7.96;63.45
15272;BME280;7737;51.578;7.268;2023-04-20T00:02:42;101428.25;;;7.96;64.86
15272;BME280;7737;51.578;7.268;2023-04-20T00:05:09;101421.66;;;7.80;64.90
15272;BME280;7737;51.578;7.268;2023-04-20T00:07:38;101423.38;;;7.81;65.18
15272;BME280;7737;51.578;7.268;2023-04-20T00:10:06;101413.22;;;7.97;65.21
15272;BME280;7737;51.578;7.268;2023-04-20T00:12:33;101416.94;;;7.91;65.05
15272;BME280;7737;51.578;7.268;2023-04-20T00:15:00;101413.28;;;7.63;64.85
15272;BME280;7737;51.578;7.268;2023-04-20T00:17:27;101419.75;;;7.85;65.86
15272;BME280;7737;51.578;7.268;2023-04-20T00:19:53;101403.50;;;7.65;66.01
15272;BME280;7737;51.578;7.268;2023-04-20T00:22:20;101383.97;;;7.71;65.15
15272;BME280;7737;51.578;7.268;2023-04-20T00:24:48;101384.84;;;7.71;65.68
15272;BME280;7737;51.578;7.268;2023-04-20T00:27:15;101393.78;;;7.67;64.68
15272;BME280;7737;51.578;7.268;2023-04-20T00:29:42;101376.94;;;7.70;64.19
15272;BME280;7737;51.578;7.268;2023-04-20T00:32:08;101378.88;;;7.63;65.73
15272;BME280;7737;51.578;7.268;2023-04-20T00:34:35;101380.69;;;7.61;66.09
15272;BME280;7737;51.578;7.268;2023-04-20T00:37:01;101386.91;;;7.60;66.03
15272;BME280;7737;51.578;7.268;2023-04-20T00:39:28;101385.41;;;7.50;66.92
15272;BME280;7737;51.578;7.268;2023-04-20T00:42:02;101375.63;;;7.54;67.13
15272;BME280;7737;51.578;7.268;2023-04-20T00:44:29;101379.97;;;7.55;67.43
15272;BME280;7737;51.578;7.268;2023-04-20T00:46:55;101373.19;;;7.46;67.45
15272;BME280;7737;51.578;7.268;2023-04-20T00:49:22;101385.28;;;7.21;68.08
15272;BME280;7737;51.578;7.268;2023-04-20T00:51:49;101370.03;;;7.32;67.42
15272;BME280;7737;51.578;7.268;2023-04-20T00:54:16;101372.13;;;7.18;67.95
15272;BME280;7737;51.578;7.268;2023-04-20T00:56:42;101365.59;;;7.32;67.78
15272;BME280;7737;51.578;7.268;2023-04-20T00:59:11;101359.91;;;7.14;66.99
15272;BME280;7737;51.578;7.268;2023-04-20T01:01:37;101379.84;;;7.27;69.47
15272;BME280;7737;51.578;7.268;2023-04-20T01:04:04;101364.44;;;7.09;68.32
15272;BME280;7737;51.578;7.268;2023-04-20T01:06:31;101357.41;;;7.09;68.89
15272;BME280;7737;51.578;7.268;2023-04-20T01:08:58;101377.00;;;7.01;70.58
15272;BME280;7737;51.578;7.268;2023-04-20T01:11:25;101354.78;;;7.08;69.55
15272;BME280;7737;51.578;7.268;2023-04-20T01:13:51;101354.63;;;7.14;69.17
15272;BME280;7737;51.578;7.268;2023-04-20T01:16:19;101354.56;;;7.17;68.90
15272;BME280;7737;51.578;7.268;2023-04-20T01:18:49;101351.78;;;7.21;68.62
15272;BME280;7737;51.578;7.268;2023-04-20T01:21:17;101341.06;;;7.26;68.60
15272;BME280;7737;51.578;7.268;2023-04-20T01:23:47;101353.47;;;7.24;70.36
15272;BME280;7737;51.578;7.268;2023-04-20T01:26:15;101335.22;;;7.47;69.37
15272;BME280;7737;51.578;7.268;2023-04-20T01:28:42;101321.84;;;7.53;68.61
15272;BME280;7737;51.578;7.268;2023-04-20T01:31:09;101318.41;;;7.50;68.85
15272;BME280;7737;51.578;7.268;2023-04-20T01:33:36;101318.44;;;7.48;68.87
15272;BME280;7737;51.578;7.268;2023-04-20T01:36:04;101298.69;;;7.61;68.75
15272;BME280;7737;51.578;7.268;2023-04-20T01:38:31;101298.75;;;7.58;68.98
15272;BME280;7737;51.578;7.268;2023-04-20T01:41:00;101285.94;;;7.75;68.72
15272;BME280;7737;51.578;7.268;2023-04-20T01:43:27;101277.16;;;7.73;67.86
15272;BME280;7737;51.578;7.268;2023-04-20T01:45:53;101277.16;;;7.73;67.94
15272;BME280;7737;51.578;7.268;2023-04-20T01:48:20;101287.16;;;7.64;69.05
15272;BME280;7737;51.578;7.268;2023-04-20T01:50:49;101285.28;;;7.67;69.12
15272;BME280;7737;51.578;7.268;2023-04-20T01:53:15;101281.63;;;7.71;69.17
15272;BME280;7737;51.578;7.268;2023-04-20T01:55:42;101272.59;;;7.78;69.47
15272;BME280;7737;51.578;7.268;2023-04-20T01:58:10;101270.97;;;7.74;69.65
15272;BME280;7737;51.578;7.268;2023-04-20T02:00:36;101273.47;;;7.79;70.11
15272;BME280;7737;51.578;7.268;2023-04-20T02:03:03;101272.81;;;7.71;69.87
15272;BME280;7737;51.578;7.268;2023-04-20T02:05:29;101269.91;;;7.80;70.63
15272;BME280;7737;51.578;7.268;2023-04-20T02:07:56;101265.59;;;7.77;70.50
15272;BME280;7737;51.578;7.268;2023-04-20T02:10:23;101275.44;;;7.72;71.28
15272;BME280;7737;51.578;7.268;2023-04-20T02:12:49;101277.06;;;7.76;71.41
15272;BME280;7737;51.578;7.268;2023-04-20T02:15:17;101284.19;;;7.74;72.56
15272;BME280;7737;51.578;7.268;2023-04-20T02:17:44;101291.97;;;7.80;73.68
15272;BME280;7737;51.578;7.268;2023-04-20T02:20:11;101296.63;;;7.71;74.44
15272;BME280;7737;51.578;7.268;2023-04-20T02:22:37;101302.66;;;7.76;76.49
15272;BME280;7737;51.578;7.268;2023-04-20T02:25:05;101298.53;;;7.67;76.71
15272;BME280;7737;51.578;7.268;2023-04-20T02:27:32;101301.97;;;7.69;77.27
15272;BME280;7737;51.578;7.268;2023-04-20T02:29:59;101301.91;;;7.71;77.40
15272;BME280;7737;51.578;7.268;2023-04-20T02:32:27;101307.44;;;7.63;78.90
15272;BME280;7737;51.578;7.268;2023-04-20T02:34:53;101314.41;;;7.67;80.42
15272;BME280;7737;51.578;7.268;2023-04-20T02:37:20;101319.63;;;7.69;80.84
15272;BME280;7737;51.578;7.268;2023-04-20T02:39:46;101309.19;;;7.64;81.60
15272;BME280;7737;51.578;7.268;2023-04-20T02:42:13;101308.38;;;7.62;81.33
15272;BME280;7737;51.578;7.268;2023-04-20T02:44:39;101308.16;;;7.68;82.55
15272;BME280;7737;51.578;7.268;2023-04-20T02:47:06;101299.34;;;7.68;82.92
15272;BME280;7737;51.578;7.268;2023-04-20T02:49:34;101298.69;;;7.61;84.50
15272;BME280;7737;51.578;7.268;2023-04-20T02:52:01;101310.56;;;7.77;85.45
15272;BME280;7737;51.578;7.268;2023-04-20T02:54:27;101307.84;;;7.80;86.03
15272;BME280;7737;51.578;7.268;2023-04-20T02:56:54;101312.94;;;7.86;87.01
15272;BME280;7737;51.578;7.268;2023-04-20T02:59:20;101311.25;;;7.84;87.95
15272;BME280;7737;51.578;7.268;2023-04-20T03:01:47;101309.44;;;7.86;89.38
15272;BME280;7737;51.578;7.268;2023-04-20T03:04:13;101308.28;;;7.94;89.89
15272;BME280;7737;51.578;7.268;2023-04-20T03:06:41;101302.19;;;7.92;91.63
15272;BME280;7737;51.578;7.268;2023-04-20T03:09:07;101295.91;;;7.96;92.20
15272;BME280;7737;51.578;7.268;2023-04-20T03:11:34;101297.63;;;7.97;92.96
15272;BME280;7737;51.578;7.268;2023-04-20T03:14:00;101284.34;;;7.99;94.07
15272;BME280;7737;51.578;7.268;2023-04-20T03:16:27;101298.56;;;7.95;94.77
15272;BME280;7737;51.578;7.268;2023-04-20T03:18:53;101282.59;;;7.98;95.15
15272;BME280;7737;51.578;7.268;2023-04-20T03:21:20;101294.06;;;7.98;97.20
15272;BME280;7737;51.578;7.268;2023-04-20T03:23:48;101298.56;;;7.95;97.57
15272;BME280;7737;51.578;7.268;2023-04-20T03:26:14;101296.84;;;7.94;99.28
15272;BME280;7737;51.578;7.268;2023-04-20T03:28:42;101297.81;;;7.91;100.00
15272;BME280;7737;51.578;7.268;2023-04-20T03:31:08;101290.78;;;7.90;100.00
15272;BME280;7737;51.578;7.268;2023-04-20T03:33:34;101292.59;;;7.88;100.00
15272;BME280;7737;51.578;7.268;2023-04-20T03:36:01;101289.91;;;7.90;100.00
15272;BME280;7737;51.578;7.268;2023-04-20T03:38:30;101296.09;;;7.89;100.00
15272;BME280;7737;51.578;7.268;2023-04-20T03:40:57;101281.16;;;7.88;100.00
15272;BME280;7737;51.578;7.268;2023-04-20T03:43:24;101277.63;;;7.87;100.00
15272;BME280;7737;51.578;7.268;2023-04-20T03:45:51;101283.81;;;7.86;100.00
15272;BME280;7737;51.578;7.268;2023-04-20T03:48:17;101280.28;;;7.87;100.00
15272;BME280;7737;51.578;7.268;2023-04-20T03:50:44;101276.81;;;7.85;100.00
15272;BME280;7737;51.578;7.268;2023-04-20T03:53:11;101268.91;;;7.84;100.00
15272;BME280;7737;51.578;7.268;2023-04-20T03:55:37;101283.94;;;7.83;100.00
15272;BME280;7737;51.578;7.268;2023-04-20T03:58:05;101272.66;;;7.77;100.00
15272;BME280;7737;51.578;7.268;2023-04-20T04:00:32;101262.84;;;7.80;100.00
15272;BME280;7737;51.578;7.268;2023-04-20T04:02:58;101269.19;;;7.75;100.00
15272;BME280;7737;51.578;7.268;2023-04-20T04:05:25;101266.41;;;7.79;100.00
15272;BME280;7737;51.578;7.268;2023-04-20T04:07:51;101273.59;;;7.74;100.00
15272;BME280;7737;51.578;7.268;2023-04-20T04:10:18;101265.66;;;7.74;100.00
15272;BME280;7737;51.578;7.268;2023-04-20T04:12:44;101262.94;;;7.77;100.00
15272;BME280;7737;51.578;7.268;2023-04-20T04:15:12;101255.91;;;7.76;100.00
15272;BME280;7737;51.578;7.268;2023-04-20T04:17:39;101257.81;;;7.71;100.00
15272;BME280;7737;51.578;7.268;2023-04-20T04:20:06;101256.25;;;7.64;100.00
15272;BME280;7737;51.578;7.268;2023-04-20T04:22:33;101257.81;;;7.71;100.00
15272;BME280;7737;51.578;7.268;2023-04-20T04:24:59;101257.09;;;7.66;100.00
15272;BME280;7737;51.578;7.268;2023-04-20T04:27:26;101262.38;;;7.66;100.00
15272;BME280;7737;51.578;7.268;2023-04-20T04:29:53;101258.94;;;7.63;100.00
15272;BME280;7737;51.578;7.268;2023-04-20T04:32:22;101259.91;;;7.60;100.00
15272;BME280;7737;51.578;7.268;2023-04-20T04:34:49;101260.78;;;7.61;100.00
15272;BME280;7737;51.578;7.268;2023-04-20T04:37:17;101260.81;;;7.59;100.00
15272;BME280;7737;51.578;7.268;2023-04-20T04:39:44;101254.34;;;7.69;100.00
15272;BME280;7737;51.578;7.268;2023-04-20T04:42:10;101253.31;;;7.75;100.00
15272;BME280;7737;51.578;7.268;2023-04-20T04:44:37;101259.81;;;7.63;100.00
15272;BME280;7737;51.578;7.268;2023-04-20T04:47:04;101268.69;;;7.62;100.00
15272;BME280;7737;51.578;7.268;2023-04-20T04:49:32;101270.41;;;7.63;100.00
15272;BME280;7737;51.578;7.268;2023-04-20T04:52:00;101261.69;;;7.60;100.00
15272;BME280;7737;51.578;7.268;2023-04-20T04:54:26;101266.84;;;7.64;100.00
15272;BME280;7737;51.578;7.268;2023-04-20T04:56:53;101259.22;;;7.54;100.00
15272;BME280;7737;51.578;7.268;2023-04-20T04:59:19;101257.03;;;7.68;100.00
15272;BME280;7737;51.578;7.268;2023-04-20T05:01:46;101262.75;;;7.54;100.00
15272;BME280;7737;51.578;7.268;2023-04-20T05:04:12;101274.13;;;7.56;100.00
15272;BME280;7737;51.578;7.268;2023-04-20T05:06:40;101268.84;;;7.56;100.00
15272;BME280;7737;51.578;7.268;2023-04-20T05:09:07;101270.69;;;7.54;100.00
15272;BME280;7737;51.578;7.268;2023-04-20T05:11:33;101279.44;;;7.56;100.00
15272;BME280;7737;51.578;7.268;2023-04-20T05:14:00;101290.09;;;7.53;100.00
15272;BME280;7737;51.578;7.268;2023-04-20T05:16:27;101278.84;;;7.45;100.00
15272;BME280;7737;51.578;7.268;2023-04-20T05:18:54;101280.47;;;7.51;100.00
15272;BME280;7737;51.578;7.268;2023-04-20T05:21:20;101286.88;;;7.42;100.00
15272;BME280;7737;51.578;7.268;2023-04-20T05:23:48;101282.25;;;7.50;100.00
15272;BME280;7737;51.578;7.268;2023-04-20T05:26:15;101283.16;;;7.49;100.00
15272;BME280;7737;51.578;7.268;2023-04-20T05:28:42;101283.09;;;7.51;100.00
15272;BME280;7737;51.578;7.268;2023-04-20T05:31:08;101284.72;;;7.56;100.00
15272;BME280;7737;51.578;7.268;2023-04-20T05:33:35;101292.88;;;7.49;100.00
15272;BME280;7737;51.578;7.268;2023-04-20T05:36:02;101287.59;;;7.47;100.00
15272;BME280;7737;51.578;7.268;2023-04-20T05:38:28;101284.59;;;7.28;100.00
15272;BME280;7737;51.578;7.268;2023-04-20T05:40:56;101281.41;;;7.48;100.00
15272;BME280;7737;51.578;7.268;2023-04-20T05:43:23;101294.66;;;7.47;100.00
15272;BME280;7737;51.578;7.268;2023-04-20T05:45:49;101293.91;;;7.43;100.00
15272;BME280;7737;51.578;7.268;2023-04-20T05:48:16;101305.88;;;7.24;100.00
15272;BME280;7737;51.578;7.268;2023-04-20T05:50:42;101315.63;;;7.22;100.00
15272;BME280;7737;51.578;7.268;2023-04-20T05:53:09;101314.91;;;7.15;100.00
15272;BME280;7737;51.578;7.268;2023-04-20T05:55:35;101328.19;;;7.14;100.00
15272;BME280;7737;51.578;7.268;2023-04-20T05:58:03;101324.88;;;7.06;100.00
15272;BME280;7737;51.578;7.268;2023-04-20T06:00:30;101326.63;;;7.07;100.00
15272;BME280;7737;51.578;7.268;2023-04-20T06:02:56;101331.59;;;6.84;100.00
15272;BME280;7737;51.578;7.268;2023-04-20T06:05:23;101341.19;;;6.88;100.00
15272;BME280;7737;51.578;7.268;2023-04-20T06:07:49;101340.53;;;6.78;100.00
15272;BME280;7737;51.578;7.268;2023-04-20T06:10:16;101341.72;;;6.65;100.00
15272;BME280;7737;51.578;7.268;2023-04-20T06:12:42;101342.41;;;6.74;100.00
15272;BME280;7737;51.578;7.268;2023-04-20T06:15:10;101340.56;;;6.77;100.00
15272;BME280;7737;51.578;7.268;2023-04-20T06:17:37;101337.38;;;6.62;100.00
15272;BME280;7737;51.578;7.268;2023-04-20T06:20:06;101343.41;;;6.67;100.00
15272;BME280;7737;51.578;7.268;2023-04-20T06:22:33;101340.09;;;6.59;100.00
15272;BME280;7737;51.578;7.268;2023-04-20T06:24:59;101335.84;;;6.54;100.00
15272;BME280;7737;51.578;7.268;2023-04-20T06:27:27;101336.38;;;6.68;100.00
15272;BME280;7737;51.578;7.268;2023-04-20T06:29:53;101339.88;;;6.68;100.00
15272;BME280;7737;51.578;7.268;2023-04-20T06:32:21;101337.88;;;6.80;100.00
15272;BME280;7737;51.578;7.268;2023-04-20T06:34:47;101324.16;;;6.62;100.00
15272;BME280;7737;51.578;7.268;2023-04-20T06:37:15;101330.41;;;6.60;100.00
15272;BME280;7737;51.578;7.268;2023-04-20T06:39:41;101331.28;;;6.60;100.00
15272;BME280;7737;51.578;7.268;2023-04-20T06:42:08;101325.78;;;6.69;100.00
15272;BME280;7737;51.578;7.268;2023-04-20T06:44:34;101327.38;;;6.77;100.00
15272;BME280;7737;51.578;7.268;2023-04-20T06:47:01;101327.25;;;6.81;100.00
15272;BME280;7737;51.578;7.268;2023-04-20T06:49:29;101323.66;;;6.84;100.00
15272;BME280;7737;51.578;7.268;2023-04-20T06:51:55;101319.25;;;6.84;100.00
15272;BME280;7737;51.578;7.268;2023-04-20T06:54:22;101324.59;;;6.83;100.00
15272;BME280;7737;51.578;7.268;2023-04-20T06:56:48;101320.81;;;6.93;100.00
15272;BME280;7737;51.578;7.268;2023-04-20T06:59:15;101314.50;;;6.97;100.00
15272;BME280;7737;51.578;7.268;2023-04-20T07:01:42;101310.56;;;7.13;100.00
15272;BME280;7737;51.578;7.268;2023-04-20T07:04:09;101306.97;;;7.17;100.00
15272;BME280;7737;51.578;7.268;2023-04-20T07:06:37;101305.59;;;7.34;100.00
15272;BME280;7737;51.578;7.268;2023-04-20T07:09:04;101312.25;;;7.17;100.00
15272;BME280;7737;51.578;7.268;2023-04-20T07:11:30;101304.47;;;7.11;100.00
15272;BME280;7737;51.578;7.268;2023-04-20T07:13:57;101298.66;;;7.30;100.00
15272;BME280;7737;51.578;7.268;2023-04-20T07:16:23;101295.19;;;7.28;100.00
15272;BME280;7737;51.578;7.268;2023-04-20T07:18:50;101298.81;;;7.24;100.00
15272;BME280;7737;51.578;7.268;2023-04-20T07:21:16;101299.28;;;7.40;100.00
15272;BME280;7737;51.578;7.268;2023-04-20T07:23:44;101283.06;;;7.52;100.00
15272;BME280;7737;51.578;7.268;2023-04-20T07:26:12;101294.94;;;7.38;100.00
15272;BME280;7737;51.578;7.268;2023-04-20T07:28:38;101291.69;;;7.59;100.00
15272;BME280;7737;51.578;7.268;2023-04-20T07:31:05;101284.06;;;7.48;100.00
15272;BME280;7737;51.578;7.268;2023-04-20T07:33:32;101286.41;;;7.59;100.00
15272;BME280;7737;51.578;7.268;2023-04-20T07:36:00;101284.19;;;7.74;100.00
15272;BME280;7737;51.578;7.268;2023-04-20T07:38:26;101278.38;;;7.62;100.00
15272;BME280;7737;51.578;7.268;2023-04-20T07:40:54;101278.16;;;7.69;100.00
15272;BME280;7737;51.578;7.268;2023-04-20T07:43:21;101275.88;;;7.86;100.00
15272;BME280;7737;51.578;7.268;2023-04-20T07:45:47;101282.69;;;7.95;100.00
15272;BME280;7737;51.578;7.268;2023-04-20T07:48:14;101280.28;;;7.87;100.00
15272;BME280;7737;51.578;7.268;2023-04-20T07:50:40;101277.59;;;7.58;100.00
15272;BME280;7737;51.578;7.268;2023-04-20T07:53:07;101269.19;;;8.04;100.00
15272;BME280;7737;51.578;7.268;2023-04-20T07:55:34;101271.22;;;7.94;100.00
15272;BME280;7737;51.578;7.268;2023-04-20T07:58:02;101271.34;;;7.91;100.00
15272;BME280;7737;51.578;7.268;2023-04-20T08:00:29;101271.34;;;7.91;100.00
15272;BME280;7737;51.578;7.268;2023-04-20T08:02:55;101278.19;;;7.98;100.00
15272;BME280;7737;51.578;7.268;2023-04-20T08:05:22;101266.66;;;7.99;100.00
15272;BME280;7737;51.578;7.268;2023-04-20T08:07:49;101262.38;;;7.95;100.00
15272;BME280;7737;51.578;7.268;2023-04-20T08:10:16;101263.44;;;7.90;100.00
15272;BME280;7737;51.578;7.268;2023-04-20T08:12:42;101257.00;;;7.98;100.00
15272;BME280;7737;51.578;7.268;2023-04-20T08:15:11;101263.19;;;7.97;100.00
15272;BME280;7737;51.578;7.268;2023-04-20T08:17:38;101258.06;;;7.93;100.00
15272;BME280;7737;51.578;7.268;2023-04-20T08:20:06;101245.13;;;7.82;100.00
15272;BME280;7737;51.578;7.268;2023-04-20T08:22:34;101253.06;;;7.82;100.00
15272;BME280;7737;51.578;7.268;2023-04-20T08:25:01;101249.69;;;7.77;100.00
15272;BME280;7737;51.578;7.268;2023-04-20T08:27:27;101249.25;;;7.92;100.00
15272;BME280;7737;51.578;7.268;2023-04-20T08:29:54;101243.13;;;7.90;100.00
15272;BME280;7737;51.578;7.268;2023-04-20T08:32:23;101245.06;;;7.85;100.00
15272;BME280;7737;51.578;7.268;2023-04-20T08:34:50;101239.59;;;7.91;100.00
15272;BME280;7737;51.578;7.268;2023-04-20T08:37:17;101239.84;;;7.82;100.00
15272;BME280;7737;51.578;7.268;2023-04-20T08:39:43;101231.72;;;7.88;100.00
15272;BME280;7737;51.578;7.268;2023-04-20T08:42:10;101235.19;;;7.90;100.00
15272;BME280;7737;51.578;7.268;2023-04-20T08:44:36;101229.09;;;7.88;100.00
15272;BME280;7737;51.578;7.268;2023-04-20T08:47:03;101228.25;;;7.86;100.00
15272;BME280;7737;51.578;7.268;2023-04-20T08:49:31;101232.13;;;8.04;100.00
15272;BME280;7737;51.578;7.268;2023-04-20T08:51:58;101230.84;;;7.88;100.00
15272;BME280;7737;51.578;7.268;2023-04-20T08:54:25;101242.09;;;7.96;100.00
15272;BME280;7737;51.578;7.268;2023-04-20T08:56:51;101241.84;;;8.04;100.00
15272;BME280;7737;51.578;7.268;2023-04-20T08:59:18;101243.72;;;8.00;100.00
15272;BME280;7737;51.578;7.268;2023-04-20T09:01:44;101245.91;;;7.86;100.00
15272;BME280;7737;51.578;7.268;2023-04-20T09:04:15;101250.53;;;7.79;100.00
15272;BME280;7737;51.578;7.268;2023-04-20T09:06:44;101268.06;;;7.83;100.00
15272;BME280;7737;51.578;7.268;2023-04-20T09:09:11;101260.50;;;7.70;100.00
15272;BME280;7737;51.578;7.268;2023-04-20T09:11:38;101274.97;;;7.87;100.00
15272;BME280;7737;51.578;7.268;2023-04-20T09:14:08;101274.19;;;7.84;100.00
15272;BME280;7737;51.578;7.268;2023-04-20T09:16:37;101268.56;;;7.94;100.00
15272;BME280;7737;51.578;7.268;2023-04-20T09:19:04;101273.22;;;8.16;100.00
15272;BME280;7737;51.578;7.268;2023-04-20T09:21:31;101268.94;;;8.41;100.00
15272;BME280;7737;51.578;7.268;2023-04-20T09:24:00;101273.81;;;8.54;100.00
15272;BME280;7737;51.578;7.268;2023-04-20T09:26:30;101258.03;;;8.50;100.00
15272;BME280;7737;51.578;7.268;2023-04-20T09:28:57;101251.31;;;8.66;100.00
15272;BME280;7737;51.578;7.268;2023-04-20T09:31:23;101249.09;;;8.80;100.00
15272;BME280;7737;51.578;7.268;2023-04-20T09:33:58;101259.59;;;8.83;100.00
15272;BME280;7737;51.578;7.268;2023-04-20T09:36:34;101251.03;;;8.75;100.00
15272;BME280;7737;51.578;7.268;2023-04-20T09:39:08;101242.88;;;8.55;100.00
15272;BME280;7737;51.578;7.268;2023-04-20T09:41:35;101242.69;;;9.12;100.00
15272;BME280;7737;51.578;7.268;2023-04-20T09:44:02;101234.31;;;9.47;100.00
15272;BME280;7737;51.578;7.268;2023-04-20T09:46:30;101234.38;;;9.46;100.00
15272;BME280;7737;51.578;7.268;2023-04-20T09:48:57;101223.56;;;9.27;100.00
15272;BME280;7737;51.578;7.268;2023-04-20T09:51:25;101217.66;;;9.67;100.00
15272;BME280;7737;51.578;7.268;2023-04-20T09:53:56;101222.34;;;9.60;100.00
15272;BME280;7737;51.578;7.268;2023-04-20T09:56:25;101219.75;;;9.82;100.00
15272;BME280;7737;51.578;7.268;2023-04-20T09:58:52;101209.56;;;9.70;100.00
15272;BME280;7737;51.578;7.268;2023-04-20T10:01:20;101207.28;;;10.06;100.00
15272;BME280;7737;51.578;7.268;2023-04-20T10:03:48;101205.66;;;9.57;100.00
15272;BME280;7737;51.578;7.268;2023-04-20T10:06:20;101199.03;;;9.90;100.00
15272;BME280;7737;51.578;7.268;2023-04-20T10:08:46;101192.66;;;10.17;100.00
15272;BME280;7737;51.578;7.268;2023-04-20T10:11:27;101197.22;;;9.46;100.00
15272;BME280;7737;51.578;7.268;2023-04-20T10:13:54;101191.25;;;9.86;100.00
15272;BME280;7737;51.578;7.268;2023-04-20T10:16:21;101192.34;;;9.80;100.00
15272;BME280;7737;51.578;7.268;2023-04-20T10:18:58;101192.75;;;9.93;100.00
15272;BME280;7737;51.578;7.268;2023-04-20T10:21:26;101182.00;;;9.74;100.00
15272;BME280;7737;51.578;7.268;2023-04-20T10:23:53;101184.97;;;9.88;100.00
15272;BME280;7737;51.578;7.268;2023-04-20T10:26:21;101186.94;;;9.83;100.00
15272;BME280;7737;51.578;7.268;2023-04-20T10:28:49;101178.06;;;9.84;100.00
15272;BME280;7737;51.578;7.268;2023-04-20T10:31:15;101179.38;;;9.72;100.00
15272;BME280;7737;51.578;7.268;2023-04-20T10:33:52;101177.09;;;10.30;100.00
15272;BME280;7737;51.578;7.268;2023-04-20T10:36:26;101154.00;;;11.13;100.00
15272;BME280;7737;51.578;7.268;2023-04-20T10:38:53;101153.56;;;11.03;100.00
15272;BME280;7737;51.578;7.268;2023-04-20T10:41:20;101142.84;;;10.44;100.00
15272;BME280;7737;51.578;7.268;2023-04-20T10:43:46;101138.97;;;10.51;100.00
15272;BME280;7737;51.578;7.268;2023-04-20T10:46:15;101136.06;;;9.94;100.00
15272;BME280;7737;51.578;7.268;2023-04-20T10:48:52;101129.53;;;10.24;100.00
15272;BME280;7737;51.578;7.268;2023-04-20T10:51:19;101137.22;;;10.30;100.00
15272;BME280;7737;51.578;7.268;2023-04-20T10:53:56;101134.59;;;10.08;100.00
15272;BME280;7737;51.578;7.268;2023-04-20T10:56:23;101124.56;;;10.36;100.00
15272;BME280;7737;51.578;7.268;2023-04-20T10:58:50;101113.16;;;10.55;100.00
15272;BME280;7737;51.578;7.268;2023-04-20T11:01:19;101115.00;;;10.32;100.00
15272;BME280;7737;51.578;7.268;2023-04-20T11:03:49;101113.41;;;10.49;100.00
15272;BME280;7737;51.578;7.268;2023-04-20T11:06:16;101109.94;;;10.47;100.00
15272;BME280;7737;51.578;7.268;2023-04-20T11:08:42;101105.19;;;10.75;100.00
15272;BME280;7737;51.578;7.268;2023-04-20T11:11:19;101085.78;;;10.91;100.00
15272;BME280;7737;51.578;7.268;2023-04-20T11:13:48;101077.13;;;10.88;100.00
15272;BME280;7737;51.578;7.268;2023-04-20T11:16:16;101069.31;;;11.41;100.00
15272;BME280;7737;51.578;7.268;2023-04-20T11:18:51;101063.38;;;11.90;100.00
15272;BME280;7737;51.578;7.268;2023-04-20T11:21:18;101059.84;;;11.52;100.00
15272;BME280;7737;51.578;7.268;2023-04-20T11:23:46;101069.66;;;11.33;100.00
15272;BME280;7737;51.578;7.268;2023-04-20T11:26:13;101065.41;;;11.29;100.00
15272;BME280;7737;51.578;7.268;2023-04-20T11:28:50;101047.84;;;11.44;100.00
15272;BME280;7737;51.578;7.268;2023-04-20T11:31:17;101033.84;;;12.12;100.00
15272;BME280;7737;51.578;7.268;2023-04-20T11:33:43;101016.91;;;12.30;100.00
15272;BME280;7737;51.578;7.268;2023-04-20T11:36:18;100999.50;;;11.53;100.00
15272;BME280;7737;51.578;7.268;2023-04-20T11:38:45;101011.56;;;12.13;100.00
15272;BME280;7737;51.578;7.268;2023-04-20T11:41:12;101008.41;;;12.39;100.00
15272;BME280;7737;51.578;7.268;2023-04-20T11:43:38;101006.56;;;12.41;100.00
15272;BME280;7737;51.578;7.268;2023-04-20T11:46:11;101007.41;;;12.07;100.00
15272;BME280;7737;51.578;7.268;2023-04-20T11:48:38;101008.59;;;12.36;100.00
15272;BME280;7737;51.578;7.268;2023-04-20T11:51:05;101005.78;;;11.88;100.00
15272;BME280;7737;51.578;7.268;2023-04-20T11:53:33;101004.97;;;11.69;100.00
15272;BME280;7737;51.578;7.268;2023-04-20T11:56:00;101005.56;;;12.59;100.00
15272;BME280;7737;51.578;7.268;2023-04-20T11:58:26;100995.72;;;11.76;100.00
15272;BME280;7737;51.578;7.268;2023-04-20T12:00:52;100999.25;;;12.10;100.00
15272;BME280;7737;51.578;7.268;2023-04-20T12:03:19;100984.53;;;11.69;100.00
15272;BME280;7737;51.578;7.268;2023-04-20T12:05:46;100993.00;;;12.11;100.00
15272;BME280;7737;51.578;7.268;2023-04-20T12:08:12;100983.84;;;12.50;100.00
15272;BME280;7737;51.578;7.268;2023-04-20T12:10:42;100976.16;;;12.76;100.00
15272;BME280;7737;51.578;7.268;2023-04-20T12:13:09;100972.94;;;13.03;100.00
15272;BME280;7737;51.578;7.268;2023-04-20T12:15:36;100967.84;;;12.82;100.00
15272;BME280;7737;51.578;7.268;2023-04-20T12:18:02;100968.31;;;13.37;100.00
15272;BME280;7737;51.578;7.268;2023-04-20T12:20:29;100946.66;;;13.87;99.93
15272;BME280;7737;51.578;7.268;2023-04-20T12:22:55;100943.63;;;13.18;96.62
15272;BME280;7737;51.578;7.268;2023-04-20T12:25:22;100937.44;;;13.18;94.46
15272;BME280;7737;51.578;7.268;2023-04-20T12:27:51;100928.03;;;12.47;91.49
15272;BME280;7737;51.578;7.268;2023-04-20T12:30:17;100924.81;;;12.73;91.42
15272;BME280;7737;51.578;7.268;2023-04-20T12:32:44;100945.31;;;13.35;93.46
15272;BME280;7737;51.578;7.268;2023-04-20T12:35:11;100946.38;;;13.17;92.39
15272;BME280;7737;51.578;7.268;2023-04-20T12:37:37;100947.00;;;12.73;91.47
15272;BME280;7737;51.578;7.268;2023-04-20T12:40:05;100958.16;;;13.44;93.24
15272;BME280;7737;51.578;7.268;2023-04-20T12:42:32;100942.59;;;13.66;92.68
15272;BME280;7737;51.578;7.268;2023-04-20T12:45:00;100944.88;;;12.96;90.86
15272;BME280;7737;51.578;7.268;2023-04-20T12:47:27;100936.97;;;13.41;91.18
15272;BME280;7737;51.578;7.268;2023-04-20T12:49:53;100939.94;;;13.51;90.81
15272;BME280;7737;51.578;7.268;2023-04-20T12:52:20;100953.31;;;13.04;90.17
15272;BME280;7737;51.578;7.268;2023-04-20T12:54:47;100962.31;;;12.70;91.05
15272;BME280;7737;51.578;7.268;2023-04-20T12:57:14;100959.47;;;12.57;92.15
15272;BME280;7737;51.578;7.268;2023-04-20T12:59:41;100974.97;;;12.66;93.17
15272;BME280;7737;51.578;7.268;2023-04-20T13:02:09;100989.25;;;12.65;92.66